Time;durP1;ratioP1;P1;durP2;ratioP2;P2;SDS_P1;SDS_P2;PMS_P1;PMS_P2;Temp;Humidity;BMP_temperature;BMP_pressure;BME280_temperature;BME280_humidity;BME280_pressure;Samples;Min_cycle;Max_cycle;Signal;HPM_P1;HPM_P2
2024/03/06 00:02:16;;;;;;;2.42;2.22;;;4.70;99.90;;;;;;5030564;28;20234;-72
2024/03/06 00:04:44;;;;;;;2.60;1.70;;;4.70;99.90;;;;;;5033933;28;20243;-72
2024/03/06 00:07:11;;;;;;;1.77;1.48;;;4.80;99.90;;;;;;5033868;28;20689;-72
2024/03/06 00:09:38;;;;;;;2.50;1.40;;;4.70;99.90;;;;;;5034256;28;20198;-72
2024/03/06 00:12:06;;;;;;;2.65;1.30;;;4.80;99.90;;;;;;5034178;28;20243;-72
2024/03/06 00:14:33;;;;;;;1.98;1.60;;;4.70;99.90;;;;;;5034098;28;20708;-72
2024/03/06 00:17:00;;;;;;;2.72;2.40;;;4.80;99.90;;;;;;5034483;28;20204;-72
2024/03/06 00:19:26;;;;;;;2.00;1.52;;;4.80;99.90;;;;;;5036144;28;20226;-72
2024/03/06 00:21:55;;;;;;;2.28;1.70;;;4.80;99.90;;;;;;5034231;28;20224;-72
2024/03/06 00:24:22;;;;;;;1.92;1.75;;;4.80;99.90;;;;;;5033905;28;20334;-72
2024/03/06 00:26:49;;;;;;;1.52;1.40;;;4.80;99.90;;;;;;5034414;28;20616;-72
2024/03/06 00:29:16;;;;;;;4.10;1.30;;;4.90;99.90;;;;;;5033924;28;20603;-72
2024/03/06 00:31:45;;;;;;;2.75;1.90;;;4.90;99.90;;;;;;5034201;28;20228;-73
2024/03/06 00:34:13;;;;;;;2.00;1.80;;;4.90;99.90;;;;;;5033794;28;20316;-72
2024/03/06 00:36:40;;;;;;;2.40;2.20;;;5.00;99.90;;;;;;5034185;28;20257;-72
2024/03/06 00:39:09;;;;;;;4.72;1.75;;;5.00;99.90;;;;;;5033680;28;20220;-72
2024/03/06 00:41:35;;;;;;;2.67;1.40;;;5.00;99.90;;;;;;5033333;28;20228;-72
2024/03/06 00:44:03;;;;;;;2.58;1.85;;;5.10;99.90;;;;;;5033553;28;20228;-72
2024/03/06 00:46:29;;;;;;;1.70;1.60;;;5.10;99.90;;;;;;5036793;28;20237;-72
2024/03/06 00:48:56;;;;;;;2.10;1.90;;;5.20;99.90;;;;;;5039924;28;20201;-72
2024/03/06 00:51:23;;;;;;;2.28;1.50;;;5.20;99.90;;;;;;5033406;28;20668;-72
2024/03/06 00:53:49;;;;;;;7.13;1.63;;;5.30;99.90;;;;;;5033749;28;20232;-72
2024/03/06 00:56:18;;;;;;;4.03;1.70;;;5.30;99.90;;;;;;5033407;28;20204;-72
2024/03/06 00:58:44;;;;;;;1.75;1.60;;;5.30;99.90;;;;;;5033755;28;20233;-72
2024/03/06 01:01:11;;;;;;;1.52;1.35;;;5.40;99.90;;;;;;5033590;28;20240;-71
2024/03/06 01:03:39;;;;;;;1.92;1.60;;;5.40;99.90;;;;;;5033636;28;20583;-72
2024/03/06 01:06:05;;;;;;;3.13;1.52;;;5.40;99.90;;;;;;5033727;28;20215;-72
2024/03/06 01:08:32;;;;;;;4.72;1.83;;;5.40;99.90;;;;;;5033290;28;20205;-72
2024/03/06 01:10:59;;;;;;;3.00;1.77;;;5.40;99.90;;;;;;5033504;28;20626;-72
2024/03/06 01:13:27;;;;;;;1.40;1.25;;;5.40;99.90;;;;;;5033427;28;20209;-72
2024/03/06 01:15:54;;;;;;;3.30;1.33;;;5.30;99.90;;;;;;5033195;28;20690;-72
2024/03/06 01:18:21;;;;;;;3.50;2.08;;;5.30;99.90;;;;;;5033345;28;20215;-72
2024/03/06 01:20:47;;;;;;;1.55;1.45;;;5.30;99.90;;;;;;5033531;28;20219;-72
2024/03/06 01:23:14;;;;;;;1.55;1.45;;;5.30;99.90;;;;;;5033537;28;20708;-72
2024/03/06 01:25:41;;;;;;;1.98;1.20;;;5.30;99.90;;;;;;5033544;28;20239;-72
2024/03/06 01:28:07;;;;;;;2.67;1.58;;;5.20;99.90;;;;;;5033461;28;20217;-72
2024/03/06 01:30:35;;;;;;;1.48;1.20;;;5.20;99.90;;;;;;5032967;28;20708;-72
2024/03/06 01:33:02;;;;;;;1.73;1.40;;;5.20;99.90;;;;;;5033391;28;20210;-71
2024/03/06 01:35:29;;;;;;;2.85;2.38;;;5.20;99.90;;;;;;5033385;28;20234;-72
2024/03/06 01:37:56;;;;;;;1.73;1.50;;;5.20;99.90;;;;;;5033494;28;20209;-72
2024/03/06 01:40:23;;;;;;;5.00;1.38;;;5.20;99.90;;;;;;5032859;28;20236;-72
2024/03/06 01:42:49;;;;;;;3.42;2.13;;;5.20;99.90;;;;;;5033166;28;20217;-72
2024/03/06 01:45:16;;;;;;;1.83;1.73;;;5.20;99.90;;;;;;5033180;28;20237;-72
2024/03/06 01:47:44;;;;;;;1.70;1.58;;;5.20;99.90;;;;;;5034292;28;20666;-72
2024/03/06 01:50:11;;;;;;;1.80;1.50;;;5.10;99.90;;;;;;5033593;28;20213;-72
2024/03/06 01:52:40;;;;;;;2.10;1.50;;;5.10;99.90;;;;;;5033795;28;20282;-72
2024/03/06 01:55:08;;;;;;;1.55;1.33;;;5.10;99.90;;;;;;5033976;28;20683;-72
2024/03/06 01:57:35;;;;;;;2.25;1.45;;;5.10;99.90;;;;;;5035211;28;20207;-72
2024/03/06 02:00:03;;;;;;;1.73;1.40;;;5.00;99.90;;;;;;5032677;28;20235;-72
2024/03/06 02:02:31;;;;;;;4.10;1.40;;;5.00;99.90;;;;;;5032724;28;20212;-72
2024/03/06 02:05:00;;;;;;;2.88;1.23;;;4.90;99.90;;;;;;5032935;28;20231;-72
2024/03/06 02:07:26;;;;;;;1.23;1.13;;;4.90;99.90;;;;;;5032970;28;20630;-72
2024/03/06 02:09:53;;;;;;;1.73;1.50;;;4.90;99.90;;;;;;5032648;28;20208;-72
2024/03/06 02:12:20;;;;;;;1.75;1.52;;;4.90;99.90;;;;;;5032606;28;20303;-73
2024/03/06 02:14:47;;;;;;;2.00;1.75;;;4.90;99.90;;;;;;5032599;28;20623;-73
2024/03/06 02:17:13;;;;;;;11.73;2.00;;;4.90;99.90;;;;;;5032606;28;20210;-72
2024/03/06 02:19:41;;;;;;;1.58;1.35;;;4.90;99.90;;;;;;5032250;28;20237;-72
2024/03/06 02:22:09;;;;;;;1.40;1.27;;;4.90;99.90;;;;;;5032743;28;20202;-72
2024/03/06 02:24:36;;;;;;;1.77;1.60;;;4.90;99.90;;;;;;5032233;28;20619;-72
2024/03/06 02:27:05;;;;;;;3.30;1.75;;;4.90;99.90;;;;;;5031816;28;20252;-73
2024/03/06 02:29:32;;;;;;;2.08;1.48;;;4.90;99.90;;;;;;5032102;28;20215;-72
2024/03/06 02:31:59;;;;;;;1.10;1.00;;;4.90;99.90;;;;;;5032522;28;20213;-72
2024/03/06 02:34:25;;;;;;;1.52;1.42;;;4.80;99.90;;;;;;5032098;28;20228;-72
2024/03/06 02:36:52;;;;;;;1.75;1.60;;;4.80;99.90;;;;;;5032258;28;20689;-72
2024/03/06 02:39:21;;;;;;;2.25;1.88;;;4.80;99.90;;;;;;5031789;28;20228;-72
2024/03/06 02:41:48;;;;;;;1.85;1.48;;;4.80;99.90;;;;;;5032392;28;20216;-72
2024/03/06 02:44:15;;;;;;;2.17;1.70;;;4.80;99.90;;;;;;5031790;28;20237;-72
2024/03/06 02:46:42;;;;;;;3.58;2.40;;;4.90;99.90;;;;;;5032093;28;20212;-72
2024/03/06 02:49:09;;;;;;;3.75;1.90;;;4.90;99.90;;;;;;5031922;28;20319;-72
2024/03/06 02:51:36;;;;;;;2.17;1.63;;;4.90;99.90;;;;;;5031832;28;20564;-72
2024/03/06 02:54:04;;;;;;;3.75;2.30;;;5.00;99.90;;;;;;5031913;28;20319;-72
2024/03/06 02:56:32;;;;;;;1.98;1.73;;;5.00;99.90;;;;;;5031764;28;20218;-73
2024/03/06 02:58:58;;;;;;;2.30;2.10;;;5.00;99.90;;;;;;5031867;28;20600;-72
2024/03/06 03:01:25;;;;;;;1.98;1.85;;;5.10;99.90;;;;;;5031586;28;20580;-72
2024/03/06 03:03:52;;;;;;;2.85;1.77;;;5.10;99.90;;;;;;5031667;28;20776;-72
2024/03/06 03:06:19;;;;;;;2.40;2.20;;;5.10;99.90;;;;;;5031620;28;20631;-72
2024/03/06 03:08:45;;;;;;;1.90;1.70;;;5.10;99.90;;;;;;5031419;28;20216;-72
2024/03/06 03:11:12;;;;;;;2.30;1.90;;;5.10;99.90;;;;;;5031502;28;20219;-72
2024/03/06 03:13:40;;;;;;;1.80;1.70;;;5.20;99.90;;;;;;5031373;28;20295;-72
2024/03/06 03:16:07;;;;;;;2.03;1.83;;;5.20;99.90;;;;;;5031739;28;20627;-72
2024/03/06 03:18:34;;;;;;;1.83;1.63;;;5.20;99.90;;;;;;5031210;28;20204;-72
2024/03/06 03:21:01;;;;;;;1.80;1.58;;;5.20;99.90;;;;;;5031278;28;20242;-72
2024/03/06 03:23:28;;;;;;;1.80;1.65;;;5.20;99.90;;;;;;5031132;28;20258;-72
2024/03/06 03:25:55;;;;;;;2.35;1.75;;;5.20;99.90;;;;;;5031579;28;20207;-72
2024/03/06 03:28:22;;;;;;;1.73;1.63;;;5.20;99.90;;;;;;5031157;28;20251;-73
2024/03/06 03:30:50;;;;;;;2.22;1.80;;;5.20;99.90;;;;;;5031200;28;20203;-72
2024/03/06 03:33:16;;;;;;;2.13;1.50;;;5.20;99.90;;;;;;5031447;28;20686;-72
2024/03/06 03:35:43;;;;;;;2.13;1.92;;;5.30;99.90;;;;;;5031061;28;20229;-72
2024/03/06 03:38:10;;;;;;;2.92;1.60;;;5.30;99.90;;;;;;5031285;28;20215;-72
2024/03/06 03:40:36;;;;;;;1.55;1.45;;;5.20;99.90;;;;;;5030890;28;20229;-73
2024/03/06 03:43:06;;;;;;;2.10;1.60;;;5.20;99.90;;;;;;5031453;28;20299;-73
2024/03/06 03:45:33;;;;;;;2.22;1.98;;;5.20;99.90;;;;;;5031079;28;20242;-73
2024/03/06 03:48:02;;;;;;;2.35;1.60;;;5.20;99.90;;;;;;5031130;28;20208;-72
2024/03/06 03:50:29;;;;;;;2.00;1.48;;;5.20;99.90;;;;;;5030577;28;20211;-72
2024/03/06 03:52:57;;;;;;;2.42;2.22;;;5.20;99.90;;;;;;5031299;28;20213;-72
2024/03/06 03:55:24;;;;;;;2.17;1.63;;;5.20;99.90;;;;;;5030870;28;20279;-73
2024/03/06 03:57:51;;;;;;;2.10;1.92;;;5.20;99.90;;;;;;5022159;28;20204;-72
2024/03/06 04:00:19;;;;;;;2.08;1.88;;;5.30;99.90;;;;;;5022992;28;20218;-72
2024/03/06 04:02:45;;;;;;;1.80;1.70;;;5.30;99.90;;;;;;5025105;28;20224;-72
2024/03/06 04:05:14;;;;;;;2.50;2.30;;;5.30;99.90;;;;;;5022615;28;20233;-72
2024/03/06 04:07:41;;;;;;;1.83;1.73;;;5.30;99.90;;;;;;5025024;28;20196;-72
2024/03/06 04:10:10;;;;;;;1.95;1.83;;;5.30;99.90;;;;;;5019706;28;20698;-72
2024/03/06 04:12:38;;;;;;;2.00;1.70;;;5.30;99.90;;;;;;5024876;28;20200;-72
2024/03/06 04:15:06;;;;;;;2.30;1.98;;;5.30;99.90;;;;;;5022668;28;20661;-73
2024/03/06 04:17:32;;;;;;;2.42;1.63;;;5.30;99.90;;;;;;5024713;28;20685;-72
2024/03/06 04:19:59;;;;;;;2.40;2.15;;;5.30;99.90;;;;;;5023399;28;20580;-73
2024/03/06 04:22:28;;;;;;;2.22;1.92;;;5.30;99.90;;;;;;5021777;28;20226;-72
2024/03/06 04:24:58;;;;;;;2.35;2.15;;;5.40;99.90;;;;;;5021893;28;20221;-73
2024/03/06 04:27:25;;;;;;;2.42;2.03;;;5.30;99.90;;;;;;5024020;28;20639;-72
2024/03/06 04:29:52;;;;;;;2.63;1.92;;;5.30;99.90;;;;;;5024084;28;20196;-73
2024/03/06 04:32:19;;;;;;;1.85;1.75;;;5.30;99.90;;;;;;5022949;28;20217;-71
2024/03/06 04:34:46;;;;;;;3.67;2.55;;;5.30;99.90;;;;;;5024530;28;20622;-71
2024/03/06 04:37:13;;;;;;;3.20;1.85;;;5.30;99.90;;;;;;5024999;28;20577;-70
2024/03/06 04:39:42;;;;;;;2.95;2.17;;;5.30;99.90;;;;;;5030181;28;20256;-70
2024/03/06 04:42:08;;;;;;;3.13;2.60;;;5.30;99.90;;;;;;5030768;28;20205;-71
2024/03/06 04:44:35;;;;;;;1.95;1.75;;;5.40;99.90;;;;;;5030210;28;20236;-71
2024/03/06 04:47:02;;;;;;;4.18;2.47;;;5.40;99.90;;;;;;5030636;28;20221;-71
2024/03/06 04:49:29;;;;;;;2.08;1.88;;;5.40;99.90;;;;;;5031325;28;20213;-71
2024/03/06 04:51:55;;;;;;;3.00;2.53;;;5.40;99.90;;;;;;5034259;28;20214;-71
2024/03/06 04:54:22;;;;;;;2.97;2.30;;;5.50;99.90;;;;;;5034073;28;20243;-70
2024/03/06 04:56:50;;;;;;;2.78;2.22;;;5.50;99.90;;;;;;5033996;28;20209;-70
2024/03/06 04:59:17;;;;;;;3.05;1.75;;;5.50;99.90;;;;;;5033929;28;20231;-71
2024/03/06 05:01:44;;;;;;;3.15;2.70;;;5.50;99.90;;;;;;5033694;28;20290;-71
2024/03/06 05:04:11;;;;;;;2.85;2.35;;;5.50;99.90;;;;;;5033975;28;20228;-71
2024/03/06 05:06:38;;;;;;;3.30;3.00;;;5.50;99.90;;;;;;5033807;28;20205;-71
2024/03/06 05:09:05;;;;;;;3.97;3.03;;;5.50;99.90;;;;;;5033432;28;20708;-71
2024/03/06 05:11:32;;;;;;;4.18;2.53;;;5.50;99.90;;;;;;5033597;28;20739;-71
2024/03/06 05:14:01;;;;;;;2.50;2.30;;;5.50;99.90;;;;;;5034914;28;20230;-71
2024/03/06 05:16:27;;;;;;;5.03;2.22;;;5.50;99.90;;;;;;5034625;28;20213;-71
2024/03/06 05:18:54;;;;;;;3.88;2.42;;;5.50;99.90;;;;;;5033305;28;20213;-71
2024/03/06 05:21:22;;;;;;;2.60;2.40;;;5.50;99.90;;;;;;5033425;28;20585;-70
2024/03/06 05:23:49;;;;;;;2.38;2.17;;;5.50;99.90;;;;;;5033426;28;20237;-71
2024/03/06 05:26:16;;;;;;;2.88;2.25;;;5.50;99.90;;;;;;5033598;28;20740;-70
2024/03/06 05:28:42;;;;;;;5.40;2.80;;;5.50;99.90;;;;;;5033053;28;20240;-71
2024/03/06 05:31:18;;;;;;;3.38;3.08;;;5.50;99.90;;;;;;5033439;28;20284;-71
2024/03/06 05:33:45;;;;;;;3.15;2.58;;;5.50;99.90;;;;;;5033784;28;20248;-72
2024/03/06 05:36:13;;;;;;;2.72;2.50;;;5.50;99.90;;;;;;5033777;28;20213;-71
2024/03/06 05:38:41;;;;;;;5.88;3.05;;;5.50;99.90;;;;;;5033014;28;20212;-71
2024/03/06 05:41:08;;;;;;;4.25;2.80;;;5.50;99.90;;;;;;5033241;28;20323;-71
2024/03/06 05:43:34;;;;;;;3.05;2.75;;;5.50;99.90;;;;;;5032861;28;20216;-73
2024/03/06 05:46:01;;;;;;;3.13;2.83;;;5.50;99.90;;;;;;5033527;28;20209;-73
2024/03/06 05:48:29;;;;;;;4.22;2.95;;;5.50;99.90;;;;;;5033075;28;20212;-73
2024/03/06 05:50:57;;;;;;;4.35;2.55;;;5.50;99.90;;;;;;5033250;28;20212;-76
2024/03/06 05:53:23;;;;;;;3.83;2.65;;;5.50;99.90;;;;;;5032976;28;20210;-74
2024/03/06 05:55:50;;;;;;;2.45;2.20;;;5.50;99.90;;;;;;5032811;28;20259;-74
2024/03/06 05:58:17;;;;;;;2.70;2.50;;;5.50;99.90;;;;;;5033300;28;20206;-74
2024/03/06 06:00:44;;;;;;;4.03;3.53;;;5.50;99.90;;;;;;5031698;28;20240;-74
2024/03/06 06:03:11;;;;;;;3.15;2.88;;;5.50;99.90;;;;;;5033298;28;20210;-74
2024/03/06 06:05:39;;;;;;;3.75;2.65;;;5.50;99.90;;;;;;5032828;28;20280;-75
2024/03/06 06:08:06;;;;;;;4.38;2.90;;;5.50;99.90;;;;;;5032953;28;20209;-75
2024/03/06 06:10:34;;;;;;;2.75;2.40;;;5.50;99.90;;;;;;5032525;28;20622;-74
2024/03/06 06:13:03;;;;;;;3.90;3.13;;;5.40;99.90;;;;;;5032825;28;20689;-75
2024/03/06 06:15:30;;;;;;;4.25;2.92;;;5.40;99.90;;;;;;5032972;28;20224;-75
2024/03/06 06:17:57;;;;;;;4.60;2.45;;;5.50;99.90;;;;;;5032704;28;20213;-76
2024/03/06 06:20:24;;;;;;;4.82;3.15;;;5.40;99.90;;;;;;5032215;28;20236;-74
2024/03/06 06:22:52;;;;;;;4.13;3.75;;;5.50;99.90;;;;;;5032642;28;20213;-74
2024/03/06 06:25:19;;;;;;;4.78;2.80;;;5.40;99.90;;;;;;5032453;28;20580;-73
2024/03/06 06:27:45;;;;;;;4.93;3.25;;;5.40;99.90;;;;;;5032498;28;20222;-74
2024/03/06 06:30:13;;;;;;;3.35;2.88;;;5.40;99.90;;;;;;5032248;28;20209;-73
2024/03/06 06:32:40;;;;;;;4.15;2.42;;;5.50;99.90;;;;;;5032212;28;20687;-73
2024/03/06 06:35:07;;;;;;;3.55;2.83;;;5.50;99.90;;;;;;5032646;28;20621;-74
2024/03/06 06:37:34;;;;;;;5.57;3.17;;;5.50;99.90;;;;;;5030816;28;20588;-77
2024/03/06 06:40:06;;;;;;;2.60;2.25;;;5.50;99.90;;;;;;5032732;28;20669;-72
2024/03/06 06:42:33;;;;;;;3.28;2.95;;;5.50;99.90;;;;;;5032411;28;20210;-73
2024/03/06 06:45:00;;;;;;;4.97;2.55;;;5.40;99.90;;;;;;5031918;28;20237;-75
2024/03/06 06:47:27;;;;;;;4.60;2.65;;;5.50;99.90;;;;;;5032124;28;20619;-73
2024/03/06 06:49:54;;;;;;;2.20;2.00;;;5.50;99.90;;;;;;5031620;28;20217;-74
2024/03/06 06:52:21;;;;;;;5.25;2.17;;;5.50;99.90;;;;;;5031894;28;20213;-73
2024/03/06 06:54:48;;;;;;;4.38;2.83;;;5.60;99.90;;;;;;5031884;28;20598;-73
2024/03/06 06:57:16;;;;;;;3.92;2.80;;;5.60;99.90;;;;;;5031857;28;20284;-73
2024/03/06 06:59:43;;;;;;;3.22;2.78;;;5.60;99.90;;;;;;5031507;28;20672;-73
2024/03/06 07:02:10;;;;;;;4.07;2.90;;;5.60;99.90;;;;;;5031970;28;20801;-74
2024/03/06 07:04:37;;;;;;;3.63;3.22;;;5.60;99.90;;;;;;5031663;28;20235;-73
2024/03/06 07:07:03;;;;;;;5.57;3.05;;;5.60;99.90;;;;;;5031759;28;20556;-73
2024/03/06 07:09:30;;;;;;;4.55;2.80;;;5.60;99.90;;;;;;5031536;28;20212;-74
2024/03/06 07:11:57;;;;;;;2.67;2.28;;;5.60;99.90;;;;;;5031914;28;20208;-74
2024/03/06 07:14:25;;;;;;;3.15;2.85;;;5.60;99.90;;;;;;5031907;28;20636;-75
2024/03/06 07:16:52;;;;;;;4.07;2.22;;;5.60;99.90;;;;;;5031937;28;20208;-76
2024/03/06 07:19:18;;;;;;;3.67;2.35;;;5.60;99.90;;;;;;5031898;28;20212;-75
2024/03/06 07:21:45;;;;;;;3.92;2.90;;;5.70;99.90;;;;;;5031470;28;20614;-75
2024/03/06 07:24:12;;;;;;;3.15;2.65;;;5.70;99.90;;;;;;5031782;28;20255;-75
2024/03/06 07:26:39;;;;;;;3.72;2.90;;;5.70;99.90;;;;;;5031817;28;20202;-75
2024/03/06 07:29:12;;;;;;;3.05;2.75;;;5.80;99.90;;;;;;5031416;28;20205;-75
2024/03/06 07:31:40;;;;;;;4.35;2.90;;;5.90;99.90;;;;;;5031617;28;20206;-76
2024/03/06 07:34:08;;;;;;;3.88;3.35;;;5.80;99.90;;;;;;5031562;28;20236;-76
2024/03/06 07:36:35;;;;;;;3.60;3.00;;;5.90;99.90;;;;;;5025884;28;20689;-75
2024/03/06 07:39:03;;;;;;;2.65;2.45;;;5.90;99.90;;;;;;5028228;28;20237;-73
2024/03/06 07:41:30;;;;;;;3.50;2.78;;;6.00;99.90;;;;;;5029756;28;20222;-74
2024/03/06 07:43:57;;;;;;;4.43;3.30;;;6.00;99.90;;;;;;5030400;28;20290;-74
2024/03/06 07:46:24;;;;;;;5.57;3.67;;;6.00;99.90;;;;;;5031231;28;20202;-75
2024/03/06 07:48:53;;;;;;;3.30;3.00;;;6.00;99.90;;;;;;5023628;28;20201;-75
2024/03/06 07:51:20;;;;;;;3.45;3.08;;;6.00;99.90;;;;;;5030719;28;20213;-75
2024/03/06 07:53:49;;;;;;;7.03;3.92;;;6.00;99.90;;;;;;5031146;28;20221;-74
2024/03/06 07:56:16;;;;;;;4.13;3.30;;;5.90;99.90;;;;;;5031091;28;20216;-75
2024/03/06 07:58:43;;;;;;;5.80;3.55;;;5.90;99.90;;;;;;5030701;28;20209;-74
2024/03/06 08:01:11;;;;;;;5.97;2.72;;;5.90;99.90;;;;;;5031037;28;20708;-74
2024/03/06 08:03:40;;;;;;;4.22;3.38;;;5.90;99.90;;;;;;5030839;28;20209;-74
2024/03/06 08:06:09;;;;;;;6.45;3.90;;;6.00;99.90;;;;;;5030963;28;20219;-73
2024/03/06 08:08:35;;;;;;;3.78;3.40;;;6.00;99.90;;;;;;5030459;28;20674;-73
2024/03/06 08:11:02;;;;;;;6.45;3.47;;;6.10;99.90;;;;;;5030860;28;20212;-74
2024/03/06 08:13:29;;;;;;;4.13;3.50;;;6.20;99.90;;;;;;5030753;28;20206;-73
2024/03/06 08:15:56;;;;;;;6.00;4.25;;;6.30;99.90;;;;;;5030589;28;20209;-75
2024/03/06 08:18:23;;;;;;;5.30;3.33;;;6.30;99.90;;;;;;5029750;28;20271;-74
2024/03/06 08:20:50;;;;;;;5.22;3.08;;;6.40;99.90;;;;;;5022620;28;20315;-72
2024/03/06 08:23:19;;;;;;;5.35;3.35;;;6.50;99.90;;;;;;5030992;28;20198;-72
2024/03/06 08:25:46;;;;;;;3.60;2.72;;;6.60;99.90;;;;;;5035669;28;20225;-74
2024/03/06 08:28:13;;;;;;;4.22;2.90;;;6.60;99.90;;;;;;5033820;28;20210;-75
2024/03/06 08:30:40;;;;;;;3.10;2.33;;;6.70;99.90;;;;;;5034230;28;20668;-74
2024/03/06 08:33:07;;;;;;;3.75;2.90;;;6.70;99.90;;;;;;5034381;28;20205;-74
2024/03/06 08:35:34;;;;;;;3.55;2.63;;;6.60;99.90;;;;;;5034505;28;20616;-74
2024/03/06 08:38:01;;;;;;;3.33;2.55;;;6.60;99.90;;;;;;5033094;28;20295;-75
2024/03/06 08:40:29;;;;;;;3.67;3.03;;;6.60;99.90;;;;;;5033641;28;20288;-75
2024/03/06 08:42:56;;;;;;;3.72;3.42;;;6.60;99.90;;;;;;5034425;28;20214;-74
2024/03/06 08:45:23;;;;;;;5.88;2.65;;;6.60;99.90;;;;;;5034954;28;20237;-77
2024/03/06 08:47:52;;;;;;;3.47;2.60;;;6.60;99.90;;;;;;5034352;28;20351;-77
2024/03/06 08:50:19;;;;;;;5.95;2.85;;;6.50;99.90;;;;;;5034873;28;20293;-77
2024/03/06 08:52:46;;;;;;;3.63;2.50;;;6.60;99.90;;;;;;5036694;28;20213;-77
2024/03/06 08:55:14;;;;;;;4.30;2.80;;;6.60;99.90;;;;;;5037726;28;20240;-80
2024/03/06 08:57:43;;;;;;;3.15;1.95;;;6.60;99.90;;;;;;5037913;28;20550;-77
2024/03/06 09:00:11;;;;;;;3.40;2.90;;;6.60;99.90;;;;;;5034233;28;20224;-76
2024/03/06 09:02:40;;;;;;;3.50;3.08;;;6.50;99.90;;;;;;5034048;28;20229;-76
2024/03/06 09:05:10;;;;;;;5.90;2.90;;;6.60;99.90;;;;;;5035549;28;20229;-78
2024/03/06 09:07:38;;;;;;;3.42;2.80;;;6.60;99.90;;;;;;5034658;28;20263;-73
2024/03/06 09:10:06;;;;;;;2.65;2.30;;;6.60;99.90;;;;;;5031629;28;20578;-74
2024/03/06 09:12:33;;;;;;;6.28;3.47;;;6.50;99.90;;;;;;5033440;28;20213;-73
2024/03/06 09:15:02;;;;;;;6.50;3.55;;;6.50;99.90;;;;;;5033505;28;20628;-74
2024/03/06 09:17:30;;;;;;;3.22;2.92;;;6.50;99.90;;;;;;5031210;28;20217;-73
2024/03/06 09:19:57;;;;;;;3.47;3.03;;;6.50;99.90;;;;;;5027891;28;20216;-72
2024/03/06 09:22:24;;;;;;;5.20;3.00;;;6.50;99.90;;;;;;5030408;28;20245;-73
2024/03/06 09:24:51;;;;;;;3.85;2.83;;;6.60;99.90;;;;;;5031850;28;20236;-72
2024/03/06 09:27:18;;;;;;;3.42;3.03;;;6.70;99.90;;;;;;5033008;28;20202;-72
2024/03/06 09:29:45;;;;;;;4.22;3.78;;;6.80;99.90;;;;;;5038319;28;20206;-73
2024/03/06 09:32:15;;;;;;;6.13;3.55;;;6.80;99.90;;;;;;5033360;28;20204;-75
2024/03/06 09:34:44;;;;;;;3.67;3.38;;;7.00;99.90;;;;;;5033205;28;20225;-75
2024/03/06 09:37:11;;;;;;;4.95;3.65;;;7.00;99.90;;;;;;5034041;28;20232;-76
2024/03/06 09:39:38;;;;;;;4.28;3.47;;;7.10;99.90;;;;;;5033260;28;20666;-73
2024/03/06 09:42:05;;;;;;;4.30;3.17;;;7.10;99.90;;;;;;5033560;28;20227;-73
2024/03/06 09:44:32;;;;;;;4.65;3.30;;;7.20;99.90;;;;;;5033859;28;20244;-74
2024/03/06 09:47:03;;;;;;;5.30;3.80;;;7.20;99.90;;;;;;5033886;28;20210;-74
2024/03/06 09:49:31;;;;;;;3.92;3.22;;;7.20;99.90;;;;;;5033780;28;20214;-75
2024/03/06 09:52:00;;;;;;;4.00;3.60;;;7.20;99.90;;;;;;5033311;28;20206;-74
2024/03/06 09:54:28;;;;;;;4.70;3.60;;;7.20;99.90;;;;;;5033206;28;20248;-75
2024/03/06 09:56:57;;;;;;;3.92;3.17;;;7.20;99.90;;;;;;5033193;28;20260;-74
2024/03/06 09:59:24;;;;;;;3.30;2.85;;;7.10;99.90;;;;;;5032716;28;20659;-74
2024/03/06 10:01:55;;;;;;;3.40;3.10;;;7.00;99.90;;;;;;5033250;28;20728;-75
2024/03/06 10:04:24;;;;;;;6.53;3.80;;;7.00;99.90;;;;;;5032156;28;20708;-75
2024/03/06 10:06:55;;;;;;;4.28;3.65;;;6.90;99.90;;;;;;5033140;28;20241;-75
2024/03/06 10:09:22;;;;;;;4.43;3.83;;;7.00;99.90;;;;;;5031214;28;20230;-75
2024/03/06 10:11:49;;;;;;;4.28;3.20;;;7.00;99.90;;;;;;5031695;28;20202;-76
2024/03/06 10:14:17;;;;;;;6.45;3.95;;;7.00;99.90;;;;;;5032724;28;20329;-76
2024/03/06 10:16:55;;;;;;;3.90;3.60;;;7.00;99.90;;;;;;5037387;28;20225;-74
2024/03/06 10:19:24;;;;;;;7.85;3.83;;;7.00;99.90;;;;;;5032569;28;20227;-74
2024/03/06 10:21:52;;;;;;;4.45;3.55;;;7.00;99.90;;;;;;5030433;28;20253;-74
2024/03/06 10:24:23;;;;;;;4.70;3.25;;;7.00;99.90;;;;;;5031464;28;20675;-75
2024/03/06 10:26:50;;;;;;;4.95;3.92;;;7.00;99.90;;;;;;5032688;28;20206;-73
2024/03/06 10:29:18;;;;;;;5.80;3.28;;;7.10;99.90;;;;;;5032404;28;20224;-74
2024/03/06 10:31:49;;;;;;;9.30;3.55;;;7.20;99.90;;;;;;5032495;28;20665;-75
2024/03/06 10:34:17;;;;;;;5.93;4.82;;;7.20;99.90;;;;;;5032206;28;20230;-74
2024/03/06 10:36:44;;;;;;;6.10;4.00;;;7.20;99.90;;;;;;5032342;28;20214;-75
2024/03/06 10:39:14;;;;;;;4.10;3.70;;;7.20;99.90;;;;;;5032096;28;20215;-74
2024/03/06 10:41:41;;;;;;;4.28;3.70;;;7.20;99.90;;;;;;5032053;28;20317;-74
2024/03/06 10:44:14;;;;;;;7.15;4.10;;;7.20;99.90;;;;;;5031973;28;20241;-74
2024/03/06 10:46:44;;;;;;;5.35;4.65;;;7.30;99.90;;;;;;5031548;28;20206;-74
2024/03/06 10:49:12;;;;;;;5.82;3.97;;;7.30;99.90;;;;;;5031896;28;20237;-75
2024/03/06 10:51:42;;;;;;;5.03;3.78;;;7.40;99.90;;;;;;5031911;28;20276;-74
2024/03/06 10:54:09;;;;;;;4.38;3.67;;;7.50;99.90;;;;;;5031966;28;20268;-74
2024/03/06 10:56:41;;;;;;;5.00;4.22;;;7.50;99.90;;;;;;5031915;28;20591;-74
2024/03/06 10:59:10;;;;;;;9.23;4.60;;;7.50;99.90;;;;;;5031833;28;20202;-73
2024/03/06 11:01:39;;;;;;;5.10;4.25;;;7.40;99.90;;;;;;5032211;28;20308;-73
2024/03/06 11:04:07;;;;;;;7.30;4.45;;;7.40;99.90;;;;;;5032017;28;20714;-75
2024/03/06 11:06:35;;;;;;;6.20;4.35;;;7.30;99.90;;;;;;5032409;28;20233;-77
2024/03/06 11:09:03;;;;;;;9.13;5.97;;;7.20;99.90;;;;;;5031680;28;20218;-75
2024/03/06 11:11:31;;;;;;;6.20;5.30;;;7.10;99.90;;;;;;5032557;28;20609;-73
2024/03/06 11:14:08;;;;;;;6.53;5.03;;;7.10;99.90;;;;;;5033313;28;20233;-73
2024/03/06 11:17:02;;;;;;;8.18;4.80;;;7.00;99.90;;;;;;5032229;28;20216;-72
2024/03/06 11:19:30;;;;;;;9.52;5.68;;;7.00;99.90;;;;;;5031156;28;20214;-74
2024/03/06 11:21:57;;;;;;;6.78;5.63;;;6.90;99.90;;;;;;5032464;28;20225;-73
2024/03/06 11:24:24;;;;;;;8.80;5.78;;;6.90;99.90;;;;;;5031359;28;20233;-73
2024/03/06 11:26:59;;;;;;;9.20;6.38;;;6.80;99.90;;;;;;5031496;28;20209;-73
2024/03/06 11:29:29;;;;;;;9.57;6.75;;;6.80;99.90;;;;;;5030926;28;20539;-73
2024/03/06 11:32:09;;;;;;;8.40;5.78;;;6.80;99.90;;;;;;5031518;28;20224;-73
2024/03/06 11:34:37;;;;;;;9.50;5.80;;;6.90;99.90;;;;;;5031193;28;20736;-73
2024/03/06 11:37:09;;;;;;;6.00;5.03;;;7.00;99.90;;;;;;5031404;28;20209;-73
2024/03/06 11:39:37;;;;;;;8.40;5.82;;;7.00;99.90;;;;;;5031095;28;20213;-73
2024/03/06 11:42:05;;;;;;;7.35;5.63;;;7.00;99.90;;;;;;5032754;28;20246;-73
2024/03/06 11:44:33;;;;;;;8.32;5.53;;;6.90;99.90;;;;;;5030816;28;20234;-72
2024/03/06 11:47:00;;;;;;;7.72;6.22;;;6.90;99.90;;;;;;5031267;28;20213;-73
2024/03/06 11:49:31;;;;;;;8.73;5.95;;;6.80;99.90;;;;;;5030665;28;20216;-73
2024/03/06 11:51:59;;;;;;;7.82;6.50;;;6.80;99.90;;;;;;5031235;28;20293;-73
2024/03/06 11:54:26;;;;;;;10.43;6.15;;;6.70;99.90;;;;;;5030865;28;20233;-73
2024/03/06 11:56:54;;;;;;;9.02;5.95;;;6.70;99.90;;;;;;5031168;28;20205;-73
2024/03/06 11:59:22;;;;;;;9.55;7.10;;;6.60;99.90;;;;;;5031896;28;20205;-72
2024/03/06 12:01:50;;;;;;;8.82;6.32;;;6.60;99.90;;;;;;5035183;28;20303;-73
2024/03/06 12:04:17;;;;;;;8.68;6.43;;;6.60;99.90;;;;;;5034947;28;20226;-72
2024/03/06 12:06:44;;;;;;;8.25;5.85;;;6.50;99.90;;;;;;5035201;28;20206;-73
2024/03/06 12:09:11;;;;;;;8.13;6.70;;;6.50;99.90;;;;;;5034935;28;20205;-73
2024/03/06 12:11:38;;;;;;;8.45;6.38;;;6.40;99.90;;;;;;5034759;28;20263;-73
2024/03/06 12:14:05;;;;;;;9.15;6.80;;;6.40;99.90;;;;;;5034987;28;20224;-73
2024/03/06 12:16:32;;;;;;;7.43;4.93;;;6.40;99.90;;;;;;5034789;28;20213;-73
2024/03/06 12:19:00;;;;;;;7.32;6.50;;;6.40;99.90;;;;;;5035143;28;20734;-73
2024/03/06 12:21:30;;;;;;;7.07;5.90;;;6.40;99.90;;;;;;5034749;28;20209;-73
2024/03/06 12:24:05;;;;;;;7.53;6.03;;;6.50;99.90;;;;;;5034635;28;20237;-73
2024/03/06 12:26:32;;;;;;;10.80;6.57;;;6.50;99.90;;;;;;5034836;28;20696;-73
2024/03/06 12:29:06;;;;;;;8.18;6.45;;;6.60;99.90;;;;;;5034765;28;20527;-73
2024/03/06 12:31:34;;;;;;;9.02;6.43;;;6.60;99.90;;;;;;5035022;28;20217;-74
2024/03/06 12:34:03;;;;;;;12.43;7.10;;;6.70;99.90;;;;;;5034932;28;20233;-74
2024/03/06 12:36:31;;;;;;;10.88;7.80;;;6.70;99.90;;;;;;5034455;28;20206;-75
2024/03/06 12:38:59;;;;;;;9.82;5.95;;;6.70;99.90;;;;;;5034555;28;20214;-75
2024/03/06 12:41:27;;;;;;;8.32;5.90;;;6.70;99.90;;;;;;5034360;28;20237;-74
2024/03/06 12:43:54;;;;;;;9.48;7.03;;;6.70;99.90;;;;;;5034185;28;20236;-75
2024/03/06 12:46:21;;;;;;;8.90;7.00;;;6.70;99.90;;;;;;5034435;28;20582;-75
2024/03/06 12:48:48;;;;;;;9.73;6.80;;;6.80;99.90;;;;;;5034340;28;20202;-75
2024/03/06 12:51:16;;;;;;;11.52;7.28;;;6.80;99.90;;;;;;5034334;28;20214;-74
2024/03/06 12:53:43;;;;;;;9.60;6.43;;;6.70;99.90;;;;;;5034095;28;20233;-75
2024/03/06 12:56:10;;;;;;;12.68;7.40;;;6.70;99.90;;;;;;5034447;28;20205;-75
2024/03/06 12:58:37;;;;;;;9.02;7.30;;;6.80;99.90;;;;;;5033931;28;20238;-74
2024/03/06 13:01:04;;;;;;;12.18;7.13;;;6.80;99.90;;;;;;5034113;28;20201;-75